9NKDK VNLK-VNPL
Flight info
| Callsign | 9NKDK |
|---|---|
| Flight time | 0h 23m |
| Altitude | 12000 |
| Route | DCT |
| Aircraft | K100/L-SBDGRY/S |
Departure
| Time | 2025-11-19 09:46 |
|---|---|
| Airport | Tenzing-Hillary Airport (VNLK) |
Arrival
| Time | 2025-11-19 10:10 |
|---|---|
| Airport | Phaplu Airport (VNPL) |
| Time | Latitude | Longitude | Altitude | Speed | Heading |
|---|---|---|---|---|---|
| 2025-11-19 09:30 | 27.68733 | 86.73170 | 9451 ft | 0 kts | 248° |
| 2025-11-19 09:39 | 27.68750 | 86.73164 | 9451 ft | 10 kts | 4° |
| 2025-11-19 09:39 | 27.68797 | 86.73175 | 9452 ft | 0 kts | 237° |
| 2025-11-19 09:41 | 27.68733 | 86.73170 | 9450 ft | 0 kts | 248° |
| 2025-11-19 09:44 | 27.68779 | 86.73143 | 9451 ft | 0 kts | 242° |
| 2025-11-19 09:44 | 27.68728 | 86.73042 | 9405 ft | 55 kts | 241° |
| 2025-11-19 09:45 | 27.68384 | 86.72425 | 9469 ft | 109 kts | 231° |
| 2025-11-19 09:45 | 27.69081 | 86.70118 | 10403 ft | 137 kts | 343° |
| 2025-11-19 09:46 | 27.71208 | 86.70415 | 10718 ft | 166 kts | 7° |
| 2025-11-19 09:46 | 27.72351 | 86.70645 | 10939 ft | 168 kts | 11° |
| 2025-11-19 09:47 | 27.74607 | 86.71201 | 11421 ft | 169 kts | 13° |
| 2025-11-19 09:47 | 27.76888 | 86.71841 | 11872 ft | 171 kts | 14° |
| 2025-11-19 09:48 | 27.79217 | 86.72204 | 12095 ft | 144 kts | 4° |
| 2025-11-19 09:48 | 27.80668 | 86.71841 | 12534 ft | 100 kts | 317° |
| 2025-11-19 09:49 | 27.81267 | 86.71034 | 12333 ft | 7 kts | 327° |
| 2025-11-19 09:49 | 27.81246 | 86.71044 | 12328 ft | 6 kts | 181° |
| 2025-11-19 09:53 | 27.81236 | 86.71043 | 12326 ft | 6 kts | 322° |
| 2025-11-19 09:54 | 27.81258 | 86.71054 | 12328 ft | 0 kts | 133° |
| 2025-11-19 09:55 | 27.80800 | 86.71808 | 12365 ft | 105 kts | 127° |
| 2025-11-19 09:56 | 27.79046 | 86.72453 | 12495 ft | 162 kts | 178° |
| 2025-11-19 09:56 | 27.76614 | 86.72444 | 12484 ft | 183 kts | 188° |
| 2025-11-19 09:57 | 27.74078 | 86.71982 | 12490 ft | 189 kts | 191° |
| 2025-11-19 09:57 | 27.70201 | 86.71236 | 12481 ft | 188 kts | 191° |
| 2025-11-19 09:58 | 27.67616 | 86.70745 | 12479 ft | 189 kts | 191° |
| 2025-11-19 09:58 | 27.66326 | 86.70497 | 12475 ft | 187 kts | 191° |
| 2025-11-19 09:59 | 27.63757 | 86.70009 | 12488 ft | 187 kts | 191° |
| 2025-11-19 09:59 | 27.61187 | 86.69506 | 12476 ft | 186 kts | 191° |
| 2025-11-19 10:00 | 27.58641 | 86.69010 | 12453 ft | 185 kts | 191° |
| 2025-11-19 10:00 | 27.56092 | 86.68557 | 12458 ft | 187 kts | 189° |
| 2025-11-19 10:01 | 27.53540 | 86.68157 | 12485 ft | 185 kts | 189° |
| 2025-11-19 10:01 | 27.49666 | 86.67563 | 12479 ft | 188 kts | 189° |
| 2025-11-19 10:02 | 27.48368 | 86.67365 | 12479 ft | 188 kts | 189° |
| 2025-11-19 10:02 | 27.45835 | 86.66620 | 12459 ft | 188 kts | 199° |
| 2025-11-19 10:03 | 27.43379 | 86.65744 | 12453 ft | 186 kts | 199° |
| 2025-11-19 10:03 | 27.41845 | 86.63728 | 12406 ft | 180 kts | 268° |
| 2025-11-19 10:04 | 27.42548 | 86.60859 | 11915 ft | 197 kts | 289° |
| 2025-11-19 10:04 | 27.43475 | 86.57936 | 11448 ft | 201 kts | 289° |
| 2025-11-19 10:04 | 27.44137 | 86.56548 | 11199 ft | 203 kts | 314° |
| 2025-11-19 10:05 | 27.48491 | 86.56919 | 9759 ft | 109 kts | 31° |
| 2025-11-19 10:06 | 27.49145 | 86.57313 | 9325 ft | 106 kts | 23° |
| 2025-11-19 10:06 | 27.50542 | 86.57927 | 8659 ft | 103 kts | 22° |
| 2025-11-19 10:07 | 27.51768 | 86.58499 | 8121 ft | 82 kts | 21° |
| 2025-11-19 10:07 | 27.52772 | 86.58664 | 8311 ft | 91 kts | 344° |
| 2025-11-19 10:07 | 27.53976 | 86.58541 | 8831 ft | 92 kts | 55° |
| 2025-11-19 10:08 | 27.53152 | 86.58916 | 8393 ft | 82 kts | 181° |
| 2025-11-19 10:08 | 27.52100 | 86.58651 | 8107 ft | 74 kts | 202° |
| 2025-11-19 10:09 | 27.51686 | 86.58458 | 8126 ft | 34 kts | 20° |
| 2025-11-19 10:09 | 27.51735 | 86.58439 | 8122 ft | 0 kts | 194° |